Time,TemperatureF,DewpointF,PressureIn,WindDirection,WindDirectionDegrees,WindSpeedMPH,WindSpeedGustMPH,Humidity,HourlyPrecipIn,Conditions,Clouds,dailyrainin,SolarRadiationWatts/m^2,SoftwareType,DateUTC
2013-11-03 00:09:00,78.3,73.8,29.78,ESE,112,2.0,7.0,86,0.00,,,-99.99,0,WeatherLink 5.4,2013-11-03 04:09:00,
2013-11-03 00:10:00,78.3,73.4,29.78,ESE,112,2.0,7.0,85,0.00,,,-99.99,0,WeatherLink 5.4,2013-11-03 04:10:00,
2013-11-03 00:20:00,78.3,73.1,29.77,ESE,112,0.0,4.0,84,0.00,,,-99.99,0,WeatherLink 5.4,2013-11-03 04:20:00,
2013-11-03 00:24:00,78.3,73.1,29.77,ESE,112,0.0,4.0,84,0.00,,,-99.99,0,WeatherLink 5.4,2013-11-03 04:24:00,
2013-11-03 00:39:00,78.5,72.9,29.77,ESE,112,0.0,6.0,83,0.00,,,-99.99,0,WeatherLink 5.4,2013-11-03 04:39:00,
2013-11-03 00:40:00,78.6,72.6,29.77,ESE,112,0.0,3.0,82,0.00,,,-99.99,0,WeatherLink 5.4,2013-11-03 04:40:00,
2013-11-03 00:50:00,78.7,72.7,29.77,SE,135,1.0,7.0,82,0.00,,,-99.99,0,WeatherLink 5.4,2013-11-03 04:50:00,
2013-11-03 00:54:00,78.7,72.7,29.77,SE,135,1.0,7.0,82,0.00,,,-99.99,0,WeatherLink 5.4,2013-11-03 04:54:00,
2013-11-03 01:09:00,78.8,72.8,29.76,North,-999,0.0,0.0,82,0.00,,,-99.99,0,WeatherLink 5.4,2013-11-03 05:09:00,
2013-11-03 01:10:00,78.8,73.2,29.76,North,-999,0.0,0.0,83,0.00,,,-99.99,0,WeatherLink 5.4,2013-11-03 05:10:00,
2013-11-03 01:20:00,78.7,73.1,29.76,North,-999,0.0,0.0,83,0.00,,,-99.99,0,WeatherLink 5.4,2013-11-03 05:20:00,
2013-11-03 01:24:00,78.7,73.1,29.76,North,-999,0.0,0.0,83,0.00,,,-99.99,0,WeatherLink 5.4,2013-11-03 05:24:00,
2013-11-03 01:39:00,78.6,73.0,29.75,North,-999,0.0,0.0,83,0.00,,,-99.99,0,WeatherLink 5.4,2013-11-03 05:39:00,
2013-11-03 01:40:00,78.6,73.0,29.75,ESE,112,0.0,6.0,83,0.00,,,-99.99,0,WeatherLink 5.4,2013-11-03 05:40:00,
2013-11-03 01:50:00,78.6,73.0,29.75,North,-999,0.0,0.0,83,0.00,,,-99.99,0,WeatherLink 5.4,2013-11-03 05:50:00,
2013-11-03 01:54:00,78.6,73.0,29.75,North,-999,0.0,0.0,83,0.00,,,-99.99,0,WeatherLink 5.4,2013-11-03 05:54:00,
2013-11-03 02:09:00,78.6,73.0,29.75,North,-999,0.0,0.0,83,0.00,,,-99.99,0,WeatherLink 5.4,2013-11-03 06:09:00,
2013-11-03 02:10:00,78.6,72.6,29.75,SE,135,0.0,1.0,82,0.00,,,-99.99,0,WeatherLink 5.4,2013-11-03 06:10:00,
2013-11-03 02:20:00,78.8,73.2,29.74,North,-999,0.0,0.0,83,0.00,,,-99.99,0,WeatherLink 5.4,2013-11-03 06:20:00,
2013-11-03 02:23:00,78.8,73.2,29.74,North,-999,0.0,0.0,83,0.00,,,-99.99,0,WeatherLink 5.4,2013-11-03 06:23:00,
2013-11-03 02:38:00,78.8,73.2,29.74,SE,135,0.0,3.0,83,0.00,,,-99.99,0,WeatherLink 5.4,2013-11-03 06:38:00,
2013-11-03 02:40:00,78.8,73.2,29.74,SE,135,1.0,6.0,83,0.00,,,-99.99,0,WeatherLink 5.4,2013-11-03 06:40:00,
2013-11-03 02:50:00,78.8,72.8,29.73,SE,135,0.0,3.0,82,0.00,,,-99.99,0,WeatherLink 5.4,2013-11-03 06:50:00,
2013-11-03 02:53:00,78.8,72.8,29.73,SE,135,0.0,3.0,82,0.00,,,-99.99,0,WeatherLink 5.4,2013-11-03 06:53:00,
2013-11-03 03:00:00,78.8,72.5,29.73,ESE,112,0.0,5.0,81,0.00,,,-99.99,0,WeatherLink 5.4,2013-11-03 07:00:00,
2013-11-03 03:10:00,78.8,71.7,29.73,ESE,112,1.0,7.0,79,0.00,,,-99.99,0,WeatherLink 5.4,2013-11-03 07:10:00,
2013-11-03 03:20:00,79.0,71.2,29.73,ESE,112,1.0,6.0,77,0.00,,,-99.99,0,WeatherLink 5.4,2013-11-03 07:20:00,
2013-11-03 03:24:00,79.0,71.2,29.73,ESE,112,1.0,6.0,77,0.00,,,-99.99,0,WeatherLink 5.4,2013-11-03 07:24:00,
2013-11-03 03:39:00,79.0,70.4,29.74,ESE,112,1.0,7.0,75,0.00,,,-99.99,0,WeatherLink 5.4,2013-11-03 07:39:00,
2013-11-03 03:40:00,79.0,70.8,29.74,North,-999,0.0,0.0,76,0.00,,,-99.99,0,WeatherLink 5.4,2013-11-03 07:40:00,
2013-11-03 03:50:00,78.8,69.8,29.73,ESE,112,3.0,10.0,74,0.00,,,-99.99,0,WeatherLink 5.4,2013-11-03 07:50:00,
2013-11-03 03:54:00,78.8,69.8,29.73,ESE,112,3.0,10.0,74,0.00,,,-99.99,0,WeatherLink 5.4,2013-11-03 07:54:00,
2013-11-03 04:09:00,78.6,69.6,29.74,ESE,112,3.0,7.0,74,0.00,,,-99.99,0,WeatherLink 5.4,2013-11-03 08:09:00,
2013-11-03 04:10:00,78.4,69.8,29.74,SE,135,2.0,10.0,75,0.00,,,-99.99,0,WeatherLink 5.4,2013-11-03 08:10:00,
2013-11-03 04:20:00,78.2,70.0,29.73,SE,135,0.0,2.0,76,0.00,,,-99.99,0,WeatherLink 5.4,2013-11-03 08:20:00,
2013-11-03 04:24:00,78.2,70.0,29.73,SE,135,0.0,2.0,76,0.00,,,-99.99,0,WeatherLink 5.4,2013-11-03 08:24:00,
2013-11-03 04:39:00,78.0,70.2,29.73,SE,135,0.0,5.0,77,0.00,,,-99.99,0,WeatherLink 5.4,2013-11-03 08:39:00,
2013-11-03 04:40:00,77.7,70.3,29.73,SE,135,1.0,7.0,78,0.00,,,-99.99,0,WeatherLink 5.4,2013-11-03 08:40:00,
2013-11-03 04:50:00,77.5,70.5,29.72,SE,135,0.0,1.0,79,0.00,,,-99.99,0,WeatherLink 5.4,2013-11-03 08:50:00,
2013-11-03 04:54:00,77.5,70.5,29.72,SE,135,0.0,1.0,79,0.00,,,-99.99,0,WeatherLink 5.4,2013-11-03 08:54:00,
2013-11-03 05:08:00,77.3,70.3,29.72,SE,135,1.0,6.0,79,0.00,,,-99.99,0,WeatherLink 5.4,2013-11-03 09:08:00,
2013-11-03 05:10:00,77.0,70.4,29.72,North,-999,0.0,0.0,80,0.00,,,-99.99,0,WeatherLink 5.4,2013-11-03 09:10:00,
2013-11-03 05:20:00,76.8,70.2,29.73,North,-999,0.0,0.0,80,0.00,,,-99.99,0,WeatherLink 5.4,2013-11-03 09:20:00,
2013-11-03 05:23:00,76.8,70.2,29.73,North,-999,0.0,0.0,80,0.00,,,-99.99,0,WeatherLink 5.4,2013-11-03 09:23:00,
2013-11-03 05:38:00,76.8,70.2,29.74,North,-999,0.0,0.0,80,0.00,,,-99.99,0,WeatherLink 5.4,2013-11-03 09:38:00,
2013-11-03 05:40:00,76.8,70.2,29.74,North,-999,0.0,0.0,80,0.00,,,-99.99,0,WeatherLink 5.4,2013-11-03 09:40:00,
2013-11-03 05:50:00,76.9,70.3,29.74,North,-999,0.0,0.0,80,0.00,,,-99.99,0,WeatherLink 5.4,2013-11-03 09:50:00,
2013-11-03 05:53:00,76.9,70.3,29.74,North,-999,0.0,0.0,80,0.00,,,-99.99,0,WeatherLink 5.4,2013-11-03 09:53:00,
2013-11-03 06:09:00,77.0,70.0,29.74,SE,135,0.0,7.0,79,0.00,,,-99.99,0,WeatherLink 5.4,2013-11-03 10:09:00,
2013-11-03 06:10:00,77.3,70.3,29.74,North,-999,0.0,0.0,79,0.00,,,-99.99,0,WeatherLink 5.4,2013-11-03 10:10:00,
2013-11-03 06:20:00,77.4,70.7,29.74,North,-999,0.0,0.0,80,0.00,,,-99.99,0,WeatherLink 5.4,2013-11-03 10:20:00,
2013-11-03 06:24:00,77.4,70.7,29.74,North,-999,0.0,0.0,80,0.00,,,-99.99,0,WeatherLink 5.4,2013-11-03 10:24:00,
2013-11-03 06:39:00,77.2,70.9,29.74,North,-999,0.0,0.0,81,0.00,,,-99.99,0,WeatherLink 5.4,2013-11-03 10:39:00,
2013-11-03 06:40:00,77.0,70.7,29.74,North,-999,0.0,0.0,81,0.00,,,-99.99,3,WeatherLink 5.4,2013-11-03 10:40:00,
2013-11-03 06:50:00,76.8,70.5,29.74,North,-999,0.0,0.0,81,0.00,,,-99.99,8,WeatherLink 5.4,2013-11-03 10:50:00,
2013-11-03 06:54:00,76.8,70.5,29.74,North,-999,0.0,0.0,81,0.00,,,-99.99,8,WeatherLink 5.4,2013-11-03 10:54:00,
2013-11-03 07:09:00,76.7,70.8,29.75,North,-999,0.0,0.0,82,0.00,,,-99.99,11,WeatherLink 5.4,2013-11-03 11:09:00,
2013-11-03 07:10:00,76.7,70.8,29.75,SSE,157,0.0,1.0,82,0.00,,,-99.99,13,WeatherLink 5.4,2013-11-03 11:10:00,
2013-11-03 07:20:00,76.5,70.9,29.76,North,-999,0.0,0.0,83,0.00,,,-99.99,18,WeatherLink 5.4,2013-11-03 11:20:00,
2013-11-03 07:24:00,76.5,70.9,29.76,North,-999,0.0,0.0,83,0.00,,,-99.99,18,WeatherLink 5.4,2013-11-03 11:24:00,
2013-11-03 07:39:00,76.5,70.9,29.76,East,90,1.0,6.0,83,0.00,,,-99.99,30,WeatherLink 5.4,2013-11-03 11:39:00,
2013-11-03 07:40:00,76.3,71.1,29.76,ESE,112,1.0,6.0,84,0.00,,,-99.99,47,WeatherLink 5.4,2013-11-03 11:40:00,
2013-11-03 07:50:00,76.3,71.1,29.77,North,-999,0.0,0.0,84,0.00,,,-99.99,79,WeatherLink 5.4,2013-11-03 11:50:00,
2013-11-03 07:54:00,76.3,71.1,29.77,North,-999,0.0,0.0,84,0.00,,,-99.99,79,WeatherLink 5.4,2013-11-03 11:54:00,
2013-11-03 08:09:00,76.4,71.2,29.77,ESE,112,0.0,2.0,84,0.00,,,-99.99,118,WeatherLink 5.4,2013-11-03 12:09:00,
2013-11-03 08:10:00,76.5,71.3,29.77,ESE,112,0.0,3.0,84,0.00,,,-99.99,151,WeatherLink 5.4,2013-11-03 12:10:00,
2013-11-03 08:20:00,76.7,71.1,29.77,ESE,112,0.0,4.0,83,0.00,,,-99.99,164,WeatherLink 5.4,2013-11-03 12:20:00,
2013-11-03 08:23:00,76.7,71.1,29.77,ESE,112,0.0,4.0,83,0.00,,,-99.99,164,WeatherLink 5.4,2013-11-03 12:23:00,
2013-11-03 08:38:00,76.9,71.7,29.77,North,-999,0.0,0.0,84,0.00,,,-99.99,176,WeatherLink 5.4,2013-11-03 12:38:00,
2013-11-03 08:40:00,77.2,71.6,29.77,North,-999,0.0,0.0,83,0.00,,,-99.99,197,WeatherLink 5.4,2013-11-03 12:40:00,
2013-11-03 08:50:00,77.5,71.6,29.78,North,-999,0.0,0.0,82,0.00,,,-99.99,215,WeatherLink 5.4,2013-11-03 12:50:00,
2013-11-03 08:53:00,77.5,71.6,29.78,North,-999,0.0,0.0,82,0.00,,,-99.99,215,WeatherLink 5.4,2013-11-03 12:53:00,
2013-11-03 09:09:00,77.7,71.8,29.79,East,90,0.0,3.0,82,0.00,,,-99.99,224,WeatherLink 5.4,2013-11-03 13:09:00,
2013-11-03 09:10:00,78.1,71.4,29.79,East,90,0.0,2.0,80,0.00,,,-99.99,215,WeatherLink 5.4,2013-11-03 13:10:00,
2013-11-03 09:20:00,78.5,72.2,29.80,North,-999,0.0,0.0,81,0.00,,,-99.99,210,WeatherLink 5.4,2013-11-03 13:20:00,
2013-11-03 09:24:00,78.5,72.2,29.80,North,-999,0.0,0.0,81,0.00,,,-99.99,210,WeatherLink 5.4,2013-11-03 13:24:00,
2013-11-03 09:39:00,78.8,72.1,29.80,North,-999,0.0,0.0,80,0.00,,,-99.99,224,WeatherLink 5.4,2013-11-03 13:39:00,
2013-11-03 09:40:00,79.2,72.5,29.80,North,-999,0.0,0.0,80,0.00,,,-99.99,389,WeatherLink 5.4,2013-11-03 13:40:00,
2013-11-03 09:50:00,79.8,71.2,29.81,East,90,0.0,1.0,75,0.00,,,-99.99,541,WeatherLink 5.4,2013-11-03 13:50:00,
2013-11-03 09:54:00,79.8,71.2,29.81,East,90,0.0,1.0,75,0.00,,,-99.99,541,WeatherLink 5.4,2013-11-03 13:54:00,
2013-11-03 10:09:00,80.9,71.4,29.81,ESE,112,0.0,5.0,73,0.00,,,-99.99,480,WeatherLink 5.4,2013-11-03 14:09:00,
2013-11-03 10:10:00,81.9,71.6,29.81,ESE,112,0.0,6.0,71,0.00,,,-99.99,770,WeatherLink 5.4,2013-11-03 14:10:00,
2013-11-03 10:20:00,83.2,71.5,29.80,SSE,157,0.0,5.0,68,0.00,,,-99.99,766,WeatherLink 5.4,2013-11-03 14:20:00,
2013-11-03 10:24:00,83.2,71.5,29.80,SSE,157,0.0,5.0,68,0.00,,,-99.99,766,WeatherLink 5.4,2013-11-03 14:24:00,
2013-11-03 10:39:00,84.1,71.1,29.80,ESE,112,0.0,6.0,65,0.00,,,-99.99,760,WeatherLink 5.4,2013-11-03 14:39:00,
2013-11-03 10:40:00,85.0,70.5,29.80,SE,135,0.0,4.0,62,0.00,,,-99.99,598,WeatherLink 5.4,2013-11-03 14:40:00,
2013-11-03 10:50:00,85.6,71.6,29.78,ESE,112,1.0,6.0,63,0.00,,,-99.99,559,WeatherLink 5.4,2013-11-03 14:50:00,
2013-11-03 10:54:00,85.6,71.6,29.78,ESE,112,1.0,6.0,63,0.00,,,-99.99,559,WeatherLink 5.4,2013-11-03 14:54:00,
2013-11-03 11:09:00,85.7,71.7,29.77,ESE,112,3.0,8.0,63,0.00,,,-99.99,754,WeatherLink 5.4,2013-11-03 15:09:00,
2013-11-03 11:10:00,85.6,72.0,29.77,ESE,112,3.0,10.0,64,0.00,,,-99.99,735,WeatherLink 5.4,2013-11-03 15:10:00,
2013-11-03 11:20:00,85.8,71.3,29.78,ESE,112,2.0,9.0,62,0.00,,,-99.99,757,WeatherLink 5.4,2013-11-03 15:20:00,
2013-11-03 11:23:00,85.8,71.3,29.78,ESE,112,2.0,9.0,62,0.00,,,-99.99,757,WeatherLink 5.4,2013-11-03 15:23:00,
2013-11-03 11:38:00,86.3,70.8,29.77,ESE,112,1.0,8.0,60,0.00,,,-99.99,476,WeatherLink 5.4,2013-11-03 15:38:00,
2013-11-03 11:40:00,86.4,71.4,29.77,ESE,112,5.0,13.0,61,0.00,,,-99.99,385,WeatherLink 5.4,2013-11-03 15:40:00,
2013-11-03 11:50:00,85.9,71.8,29.77,SE,135,3.0,10.0,63,0.00,,,-99.99,665,WeatherLink 5.4,2013-11-03 15:50:00,
2013-11-03 11:53:00,85.9,71.8,29.77,SE,135,3.0,10.0,63,0.00,,,-99.99,665,WeatherLink 5.4,2013-11-03 15:53:00,
2013-11-03 12:10:00,86.1,71.1,29.77,SE,135,3.0,9.0,61,0.00,,,-99.99,710,WeatherLink 5.4,2013-11-03 16:10:00,
2013-11-03 12:20:00,86.2,71.6,29.76,SE,135,3.0,11.0,62,0.00,,,-99.99,516,WeatherLink 5.4,2013-11-03 16:20:00,
2013-11-03 12:24:00,86.2,71.6,29.76,SE,135,3.0,11.0,62,0.00,,,-99.99,516,WeatherLink 5.4,2013-11-03 16:24:00,
2013-11-03 12:39:00,86.3,72.7,29.75,SE,135,3.0,9.0,64,0.00,,,-99.99,682,WeatherLink 5.4,2013-11-03 16:39:00,
2013-11-03 12:40:00,86.1,73.4,29.75,ESE,112,3.0,10.0,66,0.00,,,-99.99,473,WeatherLink 5.4,2013-11-03 16:40:00,
2013-11-03 12:50:00,85.7,73.5,29.74,ESE,112,5.0,11.0,67,0.00,,,-99.99,341,WeatherLink 5.4,2013-11-03 16:50:00,
2013-11-03 12:54:00,85.7,73.5,29.74,ESE,112,5.0,11.0,67,0.00,,,-99.99,341,WeatherLink 5.4,2013-11-03 16:54:00,
2013-11-03 13:09:00,85.1,73.8,29.74,East,90,5.0,12.0,69,0.00,,,-99.99,377,WeatherLink 5.4,2013-11-03 17:09:00,
2013-11-03 13:10:00,84.8,73.5,29.74,East,90,8.0,14.0,69,0.00,,,-99.99,357,WeatherLink 5.4,2013-11-03 17:10:00,
2013-11-03 13:20:00,84.4,73.5,29.74,ESE,112,8.0,16.0,70,0.00,,,-99.99,323,WeatherLink 5.4,2013-11-03 17:20:00,
2013-11-03 13:24:00,84.4,73.5,29.74,ESE,112,8.0,16.0,70,0.00,,,-99.99,323,WeatherLink 5.4,2013-11-03 17:24:00,
2013-11-03 13:39:00,84.0,72.7,29.74,ESE,112,6.0,14.0,69,0.00,,,-99.99,386,WeatherLink 5.4,2013-11-03 17:39:00,
2013-11-03 13:40:00,83.5,73.1,29.74,ESE,112,6.0,13.0,71,0.00,,,-99.99,415,WeatherLink 5.4,2013-11-03 17:40:00,
2013-11-03 13:50:00,83.2,73.2,29.74,SE,135,6.0,13.0,72,0.00,,,-99.99,474,WeatherLink 5.4,2013-11-03 17:50:00,
2013-11-03 13:54:00,83.2,73.2,29.74,SE,135,6.0,13.0,72,0.00,,,-99.99,474,WeatherLink 5.4,2013-11-03 17:54:00,
2013-11-03 14:08:00,83.3,73.3,29.73,SE,135,2.0,10.0,72,0.00,,,-99.99,396,WeatherLink 5.4,2013-11-03 18:08:00,
2013-11-03 14:10:00,83.6,73.6,29.73,ESE,112,3.0,10.0,72,0.00,,,-99.99,240,WeatherLink 5.4,2013-11-03 18:10:00,
2013-11-03 14:20:00,83.2,74.0,29.72,East,90,2.0,11.0,74,0.00,,,-99.99,232,WeatherLink 5.4,2013-11-03 18:20:00,
2013-11-03 14:23:00,83.2,74.0,29.72,East,90,2.0,11.0,74,0.00,,,-99.99,232,WeatherLink 5.4,2013-11-03 18:23:00,
2013-11-03 14:38:00,83.2,71.1,29.72,South,180,0.0,5.0,67,0.00,,,-99.99,255,WeatherLink 5.4,2013-11-03 18:38:00,
2013-11-03 14:40:00,83.7,69.8,29.72,SSW,202,1.0,9.0,63,0.00,,,-99.99,304,WeatherLink 5.4,2013-11-03 18:40:00,
2013-11-03 14:50:00,84.3,69.4,29.71,SSE,157,1.0,7.0,61,0.00,,,-99.99,336,WeatherLink 5.4,2013-11-03 18:50:00,
2013-11-03 14:53:00,84.3,69.4,29.71,SSE,157,1.0,7.0,61,0.00,,,-99.99,336,WeatherLink 5.4,2013-11-03 18:53:00,
2013-11-03 15:09:00,84.7,70.2,29.71,SW,225,2.0,9.0,62,0.00,,,-99.99,299,WeatherLink 5.4,2013-11-03 19:09:00,
2013-11-03 15:10:00,84.7,70.7,29.71,SW,225,1.0,7.0,63,0.00,,,-99.99,278,WeatherLink 5.4,2013-11-03 19:10:00,
2013-11-03 15:20:00,84.8,70.8,29.71,South,180,0.0,4.0,63,0.00,,,-99.99,269,WeatherLink 5.4,2013-11-03 19:20:00,
2013-11-03 15:24:00,84.8,70.8,29.71,South,180,0.0,4.0,63,0.00,,,-99.99,269,WeatherLink 5.4,2013-11-03 19:24:00,
2013-11-03 15:39:00,84.7,71.2,29.70,South,180,0.0,5.0,64,0.00,,,-99.99,295,WeatherLink 5.4,2013-11-03 19:39:00,
2013-11-03 15:40:00,84.6,71.5,29.70,South,180,0.0,6.0,65,0.00,,,-99.99,296,WeatherLink 5.4,2013-11-03 19:40:00,
2013-11-03 15:50:00,84.8,72.2,29.71,ESE,112,4.0,11.0,66,0.00,,,-99.99,279,WeatherLink 5.4,2013-11-03 19:50:00,
2013-11-03 15:54:00,84.8,72.2,29.71,ESE,112,4.0,11.0,66,0.00,,,-99.99,279,WeatherLink 5.4,2013-11-03 19:54:00,
2013-11-03 16:09:00,84.4,71.8,29.71,ESE,112,5.0,11.0,66,0.00,,,-99.99,297,WeatherLink 5.4,2013-11-03 20:09:00,
2013-11-03 16:10:00,84.2,72.0,29.71,ESE,112,4.0,10.0,67,0.00,,,-99.99,236,WeatherLink 5.4,2013-11-03 20:10:00,
2013-11-03 16:20:00,84.1,72.0,29.72,SSW,202,3.0,14.0,67,0.00,,,-99.99,65,WeatherLink 5.4,2013-11-03 20:20:00,
2013-11-03 16:24:00,84.1,72.0,29.72,SSW,202,3.0,14.0,67,0.00,,,-99.99,65,WeatherLink 5.4,2013-11-03 20:24:00,
2013-11-03 16:39:00,83.0,71.3,29.72,SSW,202,4.0,12.0,68,0.00,,,-99.99,120,WeatherLink 5.4,2013-11-03 20:39:00,
2013-11-03 16:40:00,82.1,70.5,29.72,SSW,202,2.0,8.0,68,0.00,,,-99.99,151,WeatherLink 5.4,2013-11-03 20:40:00,
2013-11-03 16:50:00,81.8,69.8,29.72,SSW,202,0.0,7.0,67,0.00,,,-99.99,103,WeatherLink 5.4,2013-11-03 20:50:00,
2013-11-03 16:54:00,81.8,69.8,29.72,SSW,202,0.0,7.0,67,0.00,,,-99.99,103,WeatherLink 5.4,2013-11-03 20:54:00,
2013-11-03 17:09:00,81.9,68.5,29.72,SSE,157,0.0,6.0,64,0.00,,,-99.99,81,WeatherLink 5.4,2013-11-03 21:09:00,
2013-11-03 17:10:00,81.6,68.2,29.72,SSW,202,1.0,7.0,64,0.00,,,-99.99,69,WeatherLink 5.4,2013-11-03 21:10:00,
2013-11-03 17:20:00,81.4,68.5,29.72,SW,225,0.0,6.0,65,0.00,,,-99.99,53,WeatherLink 5.4,2013-11-03 21:20:00,
2013-11-03 17:23:00,81.4,68.5,29.72,SW,225,0.0,6.0,65,0.00,,,-99.99,53,WeatherLink 5.4,2013-11-03 21:23:00,
2013-11-03 17:38:00,81.1,68.2,29.73,SSW,202,1.0,6.0,65,0.00,,,-99.99,36,WeatherLink 5.4,2013-11-03 21:38:00,
2013-11-03 17:40:00,80.7,68.3,29.73,SSW,202,0.0,4.0,66,0.00,,,-99.99,21,WeatherLink 5.4,2013-11-03 21:40:00,
2013-11-03 17:50:00,80.3,68.3,29.73,SSW,202,0.0,5.0,67,0.00,,,-99.99,11,WeatherLink 5.4,2013-11-03 21:50:00,
2013-11-03 17:53:00,80.3,68.3,29.73,SSW,202,0.0,5.0,67,0.00,,,-99.99,11,WeatherLink 5.4,2013-11-03 21:53:00,
2013-11-03 18:09:00,80.1,68.6,29.74,North,-999,0.0,0.0,68,0.00,,,-99.99,2,WeatherLink 5.4,2013-11-03 22:09:00,
2013-11-03 18:10:00,79.9,68.8,29.74,North,-999,0.0,0.0,69,0.00,,,-99.99,0,WeatherLink 5.4,2013-11-03 22:10:00,
2013-11-03 18:20:00,79.9,68.8,29.73,SSE,157,0.0,7.0,69,0.00,,,-99.99,0,WeatherLink 5.4,2013-11-03 22:20:00,
2013-11-03 18:24:00,79.9,68.8,29.73,SSE,157,0.0,7.0,69,0.00,,,-99.99,0,WeatherLink 5.4,2013-11-03 22:24:00,
2013-11-03 18:39:00,80.1,68.6,29.73,SSE,157,0.0,6.0,68,0.00,,,-99.99,0,WeatherLink 5.4,2013-11-03 22:39:00,
2013-11-03 18:40:00,80.1,68.6,29.73,SSE,157,0.0,2.0,68,0.00,,,-99.99,0,WeatherLink 5.4,2013-11-03 22:40:00,
2013-11-03 18:50:00,80.1,68.6,29.74,South,180,0.0,5.0,68,0.00,,,-99.99,0,WeatherLink 5.4,2013-11-03 22:50:00,
2013-11-03 18:54:00,80.1,68.6,29.74,South,180,0.0,5.0,68,0.00,,,-99.99,0,WeatherLink 5.4,2013-11-03 22:54:00,
2013-11-03 19:09:00,80.1,68.6,29.75,South,180,0.0,2.0,68,0.00,,,-99.99,0,WeatherLink 5.4,2013-11-03 23:09:00,
2013-11-03 19:10:00,80.1,68.6,29.75,North,-999,0.0,0.0,68,0.00,,,-99.99,0,WeatherLink 5.4,2013-11-03 23:10:00,
2013-11-03 19:20:00,80.1,69.4,29.76,North,-999,0.0,0.0,70,0.00,,,-99.99,0,WeatherLink 5.4,2013-11-03 23:20:00,
2013-11-03 19:24:00,80.1,69.4,29.76,North,-999,0.0,0.0,70,0.00,,,-99.99,0,WeatherLink 5.4,2013-11-03 23:24:00,
2013-11-03 19:39:00,80.1,69.8,29.77,North,-999,0.0,0.0,71,0.00,,,-99.99,0,WeatherLink 5.4,2013-11-03 23:39:00,
2013-11-03 19:40:00,79.9,70.1,29.77,South,180,0.0,1.0,72,0.00,,,-99.99,0,WeatherLink 5.4,2013-11-03 23:40:00,
2013-11-03 19:50:00,79.5,69.7,29.77,North,-999,0.0,0.0,72,0.00,,,-99.99,0,WeatherLink 5.4,2013-11-03 23:50:00,
2013-11-03 19:54:00,79.5,69.7,29.77,North,-999,0.0,0.0,72,0.00,,,-99.99,0,WeatherLink 5.4,2013-11-03 23:54:00,
2013-11-03 20:09:00,79.4,70.0,29.77,North,-999,0.0,0.0,73,0.00,,,-99.99,0,WeatherLink 5.4,2013-11-04 00:09:00,
2013-11-03 20:10:00,79.4,69.6,29.77,North,-999,0.0,0.0,72,0.00,,,-99.99,0,WeatherLink 5.4,2013-11-04 00:10:00,
2013-11-03 20:20:00,79.6,69.8,29.78,SE,135,0.0,1.0,72,0.00,,,-99.99,0,WeatherLink 5.4,2013-11-04 00:20:00,
2013-11-03 20:24:00,79.6,69.8,29.78,SE,135,0.0,1.0,72,0.00,,,-99.99,0,WeatherLink 5.4,2013-11-04 00:24:00,
2013-11-03 20:39:00,79.8,70.4,29.78,SSE,157,0.0,5.0,73,0.00,,,-99.99,0,WeatherLink 5.4,2013-11-04 00:39:00,
2013-11-03 20:40:00,79.7,71.1,29.78,North,-999,0.0,0.0,75,0.00,,,-99.99,0,WeatherLink 5.4,2013-11-04 00:40:00,
2013-11-03 20:50:00,79.3,70.7,29.78,SSE,157,0.0,1.0,75,0.00,,,-99.99,0,WeatherLink 5.4,2013-11-04 00:50:00,
2013-11-03 20:53:00,79.3,70.7,29.78,SSE,157,0.0,1.0,75,0.00,,,-99.99,0,WeatherLink 5.4,2013-11-04 00:53:00,
2013-11-03 21:09:00,78.9,70.3,29.78,North,-999,0.0,0.0,75,0.00,,,-99.99,0,WeatherLink 5.4,2013-11-04 01:09:00,
2013-11-03 21:10:00,78.8,70.2,29.78,SSE,157,0.0,5.0,75,0.00,,,-99.99,0,WeatherLink 5.4,2013-11-04 01:10:00,
2013-11-03 21:20:00,78.9,69.9,29.78,SSE,157,0.0,2.0,74,0.00,,,-99.99,0,WeatherLink 5.4,2013-11-04 01:20:00,
2013-11-03 21:24:00,78.9,69.9,29.78,SSE,157,0.0,2.0,74,0.00,,,-99.99,0,WeatherLink 5.4,2013-11-04 01:24:00,
2013-11-03 21:39:00,79.0,70.0,29.78,North,-999,0.0,0.0,74,0.00,,,-99.99,0,WeatherLink 5.4,2013-11-04 01:39:00,
2013-11-03 21:40:00,79.0,70.0,29.78,SE,135,1.0,6.0,74,0.00,,,-99.99,0,WeatherLink 5.4,2013-11-04 01:40:00,
2013-11-03 21:50:00,79.0,70.0,29.78,ESE,112,0.0,5.0,74,0.00,,,-99.99,0,WeatherLink 5.4,2013-11-04 01:50:00,
2013-11-03 21:54:00,79.0,70.0,29.78,ESE,112,0.0,5.0,74,0.00,,,-99.99,0,WeatherLink 5.4,2013-11-04 01:54:00,
2013-11-03 22:09:00,79.0,70.4,29.78,ESE,112,1.0,6.0,75,0.00,,,-99.99,0,WeatherLink 5.4,2013-11-04 02:09:00,
2013-11-03 22:10:00,78.8,70.6,29.78,North,-999,0.0,0.0,76,0.00,,,-99.99,0,WeatherLink 5.4,2013-11-04 02:10:00,
2013-11-03 22:20:00,78.6,70.8,29.78,North,-999,0.0,0.0,77,0.00,,,-99.99,0,WeatherLink 5.4,2013-11-04 02:20:00,
2013-11-03 22:24:00,78.6,70.8,29.78,North,-999,0.0,0.0,77,0.00,,,-99.99,0,WeatherLink 5.4,2013-11-04 02:24:00,
2013-11-03 22:39:00,78.4,71.0,29.78,East,90,0.0,2.0,78,0.00,,,-99.99,0,WeatherLink 5.4,2013-11-04 02:39:00,
2013-11-03 22:40:00,78.1,70.7,29.78,North,-999,0.0,0.0,78,0.00,,,-99.99,0,WeatherLink 5.4,2013-11-04 02:40:00,
2013-11-03 22:50:00,78.1,71.1,29.78,North,-999,0.0,0.0,79,0.00,,,-99.99,0,WeatherLink 5.4,2013-11-04 02:50:00,
2013-11-03 22:54:00,78.1,71.1,29.78,North,-999,0.0,0.0,79,0.00,,,-99.99,0,WeatherLink 5.4,2013-11-04 02:54:00,
2013-11-03 23:08:00,78.0,71.3,29.78,North,-999,0.0,0.0,80,0.00,,,-99.99,0,WeatherLink 5.4,2013-11-04 03:08:00,
2013-11-03 23:10:00,77.7,71.4,29.78,North,-999,0.0,0.0,81,0.00,,,-99.99,0,WeatherLink 5.4,2013-11-04 03:10:00,
2013-11-03 23:20:00,77.5,71.6,29.78,East,90,0.0,4.0,82,0.00,,,-99.99,0,WeatherLink 5.4,2013-11-04 03:20:00,
2013-11-03 23:24:00,77.5,71.6,29.78,East,90,0.0,4.0,82,0.00,,,-99.99,0,WeatherLink 5.4,2013-11-04 03:24:00,
2013-11-03 23:38:00,77.4,71.8,29.78,East,90,1.0,4.0,83,0.00,,,-99.99,0,WeatherLink 5.4,2013-11-04 03:38:00,
2013-11-03 23:40:00,77.3,72.1,29.78,ESE,112,1.0,6.0,84,0.00,,,-99.99,0,WeatherLink 5.4,2013-11-04 03:40:00,
2013-11-03 23:50:00,77.0,71.8,29.78,ESE,112,0.0,5.0,84,0.00,,,-99.99,0,WeatherLink 5.4,2013-11-04 03:50:00,
2013-11-03 23:53:00,77.0,71.8,29.78,ESE,112,0.0,5.0,84,0.00,,,-99.99,0,WeatherLink 5.4,2013-11-04 03:53:00,